sensor_id;sensor_type;location;lat;lon;timestamp;temperature;humidity
20594;DHT22;10455;48.732;10.266;2022-08-11T00:01:15;13.50;99.90
20594;DHT22;10455;48.732;10.266;2022-08-11T00:06:24;13.30;99.90
20594;DHT22;10455;48.732;10.266;2022-08-11T00:11:34;13.20;99.90
20594;DHT22;10455;48.732;10.266;2022-08-11T00:16:36;13.00;99.90
20594;DHT22;10455;48.732;10.266;2022-08-11T00:21:40;12.90;99.90
20594;DHT22;10455;48.732;10.266;2022-08-11T00:26:48;12.80;99.90
20594;DHT22;10455;48.732;10.266;2022-08-11T00:31:54;12.80;99.90
20594;DHT22;10455;48.732;10.266;2022-08-11T00:37:00;12.80;99.90
20594;DHT22;10455;48.732;10.266;2022-08-11T00:42:10;12.70;99.90
20594;DHT22;10455;48.732;10.266;2022-08-11T00:47:23;12.60;99.90
20594;DHT22;10455;48.732;10.266;2022-08-11T00:58:49;12.60;99.90
20594;DHT22;10455;48.732;10.266;2022-08-11T01:04:22;12.60;99.90
20594;DHT22;10455;48.732;10.266;2022-08-11T01:09:36;12.30;99.90
20594;DHT22;10455;48.732;10.266;2022-08-11T01:15:26;12.10;99.90
20594;DHT22;10455;48.732;10.266;2022-08-11T01:21:04;12.20;99.90
20594;DHT22;10455;48.732;10.266;2022-08-11T01:44:00;11.80;99.90
20594;DHT22;10455;48.732;10.266;2022-08-11T01:49:31;11.70;99.90
20594;DHT22;10455;48.732;10.266;2022-08-11T01:54:41;11.90;99.90
20594;DHT22;10455;48.732;10.266;2022-08-11T01:59:49;11.80;99.90
20594;DHT22;10455;48.732;10.266;2022-08-11T02:05:02;11.50;99.90
20594;DHT22;10455;48.732;10.266;2022-08-11T02:10:21;11.60;99.90
20594;DHT22;10455;48.732;10.266;2022-08-11T02:15:46;11.50;99.90
20594;DHT22;10455;48.732;10.266;2022-08-11T02:20:54;11.50;99.90
20594;DHT22;10455;48.732;10.266;2022-08-11T02:26:19;11.40;99.90
20594;DHT22;10455;48.732;10.266;2022-08-11T02:31:37;11.40;99.90
20594;DHT22;10455;48.732;10.266;2022-08-11T02:37:09;11.40;99.90
20594;DHT22;10455;48.732;10.266;2022-08-11T02:42:21;11.30;99.90
20594;DHT22;10455;48.732;10.266;2022-08-11T02:47:38;11.30;99.90
20594;DHT22;10455;48.732;10.266;2022-08-11T02:52:49;11.30;99.90
20594;DHT22;10455;48.732;10.266;2022-08-11T02:58:09;11.30;99.90
20594;DHT22;10455;48.732;10.266;2022-08-11T03:03:18;11.20;99.90
20594;DHT22;10455;48.732;10.266;2022-08-11T03:13:46;10.90;99.90
20594;DHT22;10455;48.732;10.266;2022-08-11T03:19:27;10.90;99.90
20594;DHT22;10455;48.732;10.266;2022-08-11T03:24:41;10.90;99.90
20594;DHT22;10455;48.732;10.266;2022-08-11T03:30:03;10.80;99.90
20594;DHT22;10455;48.732;10.266;2022-08-11T03:35:08;10.90;99.90
20594;DHT22;10455;48.732;10.266;2022-08-11T03:40:28;10.90;99.90
20594;DHT22;10455;48.732;10.266;2022-08-11T03:45:57;10.80;99.90
20594;DHT22;10455;48.732;10.266;2022-08-11T03:51:13;10.70;99.90
20594;DHT22;10455;48.732;10.266;2022-08-11T04:02:08;10.90;99.90
20594;DHT22;10455;48.732;10.266;2022-08-11T04:07:31;10.70;99.90
20594;DHT22;10455;48.732;10.266;2022-08-11T04:24:26;10.70;99.90
20594;DHT22;10455;48.732;10.266;2022-08-11T04:29:53;10.80;99.90
20594;DHT22;10455;48.732;10.266;2022-08-11T04:35:12;11.10;99.90
20594;DHT22;10455;48.732;10.266;2022-08-11T04:40:48;11.30;99.90
20594;DHT22;10455;48.732;10.266;2022-08-11T04:46:27;11.50;99.90
20594;DHT22;10455;48.732;10.266;2022-08-11T04:52:05;11.70;99.90
20594;DHT22;10455;48.732;10.266;2022-08-11T04:57:39;11.90;99.90
20594;DHT22;10455;48.732;10.266;2022-08-11T05:03:34;13.60;99.90
20594;DHT22;10455;48.732;10.266;2022-08-11T05:14:36;20.90;96.20
20594;DHT22;10455;48.732;10.266;2022-08-11T05:19:56;23.70;88.70
20594;DHT22;10455;48.732;10.266;2022-08-11T05:25:18;25.50;80.40
20594;DHT22;10455;48.732;10.266;2022-08-11T05:30:45;26.80;75.60
20594;DHT22;10455;48.732;10.266;2022-08-11T05:36:11;28.70;71.00
20594;DHT22;10455;48.732;10.266;2022-08-11T05:41:19;29.70;66.00
20594;DHT22;10455;48.732;10.266;2022-08-11T05:46:41;30.40;64.40
20594;DHT22;10455;48.732;10.266;2022-08-11T05:52:02;32.10;61.20
20594;DHT22;10455;48.732;10.266;2022-08-11T05:57:24;31.90;59.60
20594;DHT22;10455;48.732;10.266;2022-08-11T06:02:30;33.40;58.20
20594;DHT22;10455;48.732;10.266;2022-08-11T06:07:33;32.90;58.00
20594;DHT22;10455;48.732;10.266;2022-08-11T06:12:35;31.00;60.00
20594;DHT22;10455;48.732;10.266;2022-08-11T06:17:45;26.40;70.30
20594;DHT22;10455;48.732;10.266;2022-08-11T06:22:55;25.30;73.00
20594;DHT22;10455;48.732;10.266;2022-08-11T06:27:59;26.00;72.20
20594;DHT22;10455;48.732;10.266;2022-08-11T06:33:05;26.00;72.30
20594;DHT22;10455;48.732;10.266;2022-08-11T06:38:12;26.20;72.40
20594;DHT22;10455;48.732;10.266;2022-08-11T06:43:18;25.20;74.60
20594;DHT22;10455;48.732;10.266;2022-08-11T06:48:24;24.90;76.40
20594;DHT22;10455;48.732;10.266;2022-08-11T06:53:32;26.30;72.20
20594;DHT22;10455;48.732;10.266;2022-08-11T07:03:43;26.80;70.50
20594;DHT22;10455;48.732;10.266;2022-08-11T07:09:14;26.20;71.20
20594;DHT22;10455;48.732;10.266;2022-08-11T07:14:40;26.10;72.70
20594;DHT22;10455;48.732;10.266;2022-08-11T07:20:02;26.70;70.00
20594;DHT22;10455;48.732;10.266;2022-08-11T07:25:24;27.50;68.30
20594;DHT22;10455;48.732;10.266;2022-08-11T07:30:45;28.10;66.90
20594;DHT22;10455;48.732;10.266;2022-08-11T07:35:52;27.40;67.70
20594;DHT22;10455;48.732;10.266;2022-08-11T07:40:57;27.70;67.50
20594;DHT22;10455;48.732;10.266;2022-08-11T07:46:02;26.40;69.40
20594;DHT22;10455;48.732;10.266;2022-08-11T07:51:24;27.90;66.60
20594;DHT22;10455;48.732;10.266;2022-08-11T07:56:44;27.20;66.90
20594;DHT22;10455;48.732;10.266;2022-08-11T08:01:47;27.70;65.90
20594;DHT22;10455;48.732;10.266;2022-08-11T08:07:08;27.40;66.70
20594;DHT22;10455;48.732;10.266;2022-08-11T08:12:28;28.20;64.60
20594;DHT22;10455;48.732;10.266;2022-08-11T08:17:49;28.00;63.70
20594;DHT22;10455;48.732;10.266;2022-08-11T08:23:00;28.40;63.20
20594;DHT22;10455;48.732;10.266;2022-08-11T08:28:15;28.30;63.90
20594;DHT22;10455;48.732;10.266;2022-08-11T08:33:19;27.70;63.90
20594;DHT22;10455;48.732;10.266;2022-08-11T08:38:23;28.30;61.70
20594;DHT22;10455;48.732;10.266;2022-08-11T08:43:25;27.80;62.40
20594;DHT22;10455;48.732;10.266;2022-08-11T08:48:30;27.20;62.30
20594;DHT22;10455;48.732;10.266;2022-08-11T08:53:38;27.10;62.10
20594;DHT22;10455;48.732;10.266;2022-08-11T08:58:42;27.70;60.60
20594;DHT22;10455;48.732;10.266;2022-08-11T09:03:47;28.50;59.50
20594;DHT22;10455;48.732;10.266;2022-08-11T09:08:51;28.00;59.50
20594;DHT22;10455;48.732;10.266;2022-08-11T09:13:54;27.50;59.90
20594;DHT22;10455;48.732;10.266;2022-08-11T09:18:59;29.10;58.90
20594;DHT22;10455;48.732;10.266;2022-08-11T09:24:03;28.70;58.80
20594;DHT22;10455;48.732;10.266;2022-08-11T09:29:25;27.90;59.00
20594;DHT22;10455;48.732;10.266;2022-08-11T09:34:28;27.90;59.40
20594;DHT22;10455;48.732;10.266;2022-08-11T09:39:36;28.60;58.60
20594;DHT22;10455;48.732;10.266;2022-08-11T09:44:56;29.10;56.50
20594;DHT22;10455;48.732;10.266;2022-08-11T09:49:59;29.10;56.30
20594;DHT22;10455;48.732;10.266;2022-08-11T09:55:04;29.70;54.90
20594;DHT22;10455;48.732;10.266;2022-08-11T10:00:12;30.50;53.80
20594;DHT22;10455;48.732;10.266;2022-08-11T10:05:17;29.80;54.80
20594;DHT22;10455;48.732;10.266;2022-08-11T10:10:38;29.60;55.00
20594;DHT22;10455;48.732;10.266;2022-08-11T10:15:43;28.50;55.10
20594;DHT22;10455;48.732;10.266;2022-08-11T10:20:48;28.40;54.60
20594;DHT22;10455;48.732;10.266;2022-08-11T10:25:54;28.70;55.00
20594;DHT22;10455;48.732;10.266;2022-08-11T10:31:13;30.40;52.10
20594;DHT22;10455;48.732;10.266;2022-08-11T10:36:35;29.70;52.80
20594;DHT22;10455;48.732;10.266;2022-08-11T10:41:45;28.30;50.00
20594;DHT22;10455;48.732;10.266;2022-08-11T10:47:05;28.50;52.80
20594;DHT22;10455;48.732;10.266;2022-08-11T10:52:27;30.10;51.40
20594;DHT22;10455;48.732;10.266;2022-08-11T10:57:48;31.60;49.30
20594;DHT22;10455;48.732;10.266;2022-08-11T11:03:08;29.30;50.00
20594;DHT22;10455;48.732;10.266;2022-08-11T11:08:13;29.80;52.00
20594;DHT22;10455;48.732;10.266;2022-08-11T11:13:33;29.60;50.50
20594;DHT22;10455;48.732;10.266;2022-08-11T11:18:56;28.90;52.20
20594;DHT22;10455;48.732;10.266;2022-08-11T11:24:11;28.30;54.70
20594;DHT22;10455;48.732;10.266;2022-08-11T11:29:50;29.30;51.70
20594;DHT22;10455;48.732;10.266;2022-08-11T11:35:23;29.40;49.70
20594;DHT22;10455;48.732;10.266;2022-08-11T11:40:28;30.00;49.40
20594;DHT22;10455;48.732;10.266;2022-08-11T11:45:31;30.70;51.10
20594;DHT22;10455;48.732;10.266;2022-08-11T11:50:35;31.40;49.40
20594;DHT22;10455;48.732;10.266;2022-08-11T11:55:38;31.40;50.20
20594;DHT22;10455;48.732;10.266;2022-08-11T12:00:43;30.20;50.70
20594;DHT22;10455;48.732;10.266;2022-08-11T12:06:04;30.00;51.30
20594;DHT22;10455;48.732;10.266;2022-08-11T12:11:10;30.30;49.80
20594;DHT22;10455;48.732;10.266;2022-08-11T12:16:34;30.90;48.20
20594;DHT22;10455;48.732;10.266;2022-08-11T12:21:37;32.40;47.70
20594;DHT22;10455;48.732;10.266;2022-08-11T12:26:59;32.00;48.30
20594;DHT22;10455;48.732;10.266;2022-08-11T12:32:22;31.30;47.90
20594;DHT22;10455;48.732;10.266;2022-08-11T12:37:29;29.90;49.90
20594;DHT22;10455;48.732;10.266;2022-08-11T12:42:33;30.90;47.90
20594;DHT22;10455;48.732;10.266;2022-08-11T12:48:02;32.20;47.60
20594;DHT22;10455;48.732;10.266;2022-08-11T12:53:25;31.30;48.50
20594;DHT22;10455;48.732;10.266;2022-08-11T12:58:28;30.70;49.00
20594;DHT22;10455;48.732;10.266;2022-08-11T13:03:34;30.80;49.40
20594;DHT22;10455;48.732;10.266;2022-08-11T13:08:55;30.20;48.30
20594;DHT22;10455;48.732;10.266;2022-08-11T13:13:58;31.10;48.60
20594;DHT22;10455;48.732;10.266;2022-08-11T13:19:02;31.50;48.00
20594;DHT22;10455;48.732;10.266;2022-08-11T13:24:05;30.80;45.60
20594;DHT22;10455;48.732;10.266;2022-08-11T13:29:08;29.70;48.20
20594;DHT22;10455;48.732;10.266;2022-08-11T13:34:12;30.40;45.60
20594;DHT22;10455;48.732;10.266;2022-08-11T13:39:16;30.80;46.00
20594;DHT22;10455;48.732;10.266;2022-08-11T13:44:18;30.70;46.90
20594;DHT22;10455;48.732;10.266;2022-08-11T13:49:25;32.10;45.90
20594;DHT22;10455;48.732;10.266;2022-08-11T13:54:30;31.80;45.40
20594;DHT22;10455;48.732;10.266;2022-08-11T13:59:34;32.90;44.30
20594;DHT22;10455;48.732;10.266;2022-08-11T14:04:41;34.60;42.30
20594;DHT22;10455;48.732;10.266;2022-08-11T14:09:44;32.00;44.70
20594;DHT22;10455;48.732;10.266;2022-08-11T14:14:58;30.30;46.40
20594;DHT22;10455;48.732;10.266;2022-08-11T14:20:05;31.90;45.10
20594;DHT22;10455;48.732;10.266;2022-08-11T14:25:09;32.90;43.80
20594;DHT22;10455;48.732;10.266;2022-08-11T14:30:12;32.80;44.00
20594;DHT22;10455;48.732;10.266;2022-08-11T14:35:30;32.30;44.40
20594;DHT22;10455;48.732;10.266;2022-08-11T14:40:32;32.50;44.90
20594;DHT22;10455;48.732;10.266;2022-08-11T14:45:52;31.90;44.70
20594;DHT22;10455;48.732;10.266;2022-08-11T14:51:15;31.40;45.20
20594;DHT22;10455;48.732;10.266;2022-08-11T14:56:18;32.00;44.90
20594;DHT22;10455;48.732;10.266;2022-08-11T15:01:38;33.80;43.10
20594;DHT22;10455;48.732;10.266;2022-08-11T15:07:00;33.80;43.00
20594;DHT22;10455;48.732;10.266;2022-08-11T15:12:03;32.00;45.10
20594;DHT22;10455;48.732;10.266;2022-08-11T15:17:16;31.30;45.80
20594;DHT22;10455;48.732;10.266;2022-08-11T15:22:20;30.70;46.80
20594;DHT22;10455;48.732;10.266;2022-08-11T15:27:40;32.20;45.60
20594;DHT22;10455;48.732;10.266;2022-08-11T15:33:05;31.30;45.20
20594;DHT22;10455;48.732;10.266;2022-08-11T15:38:26;30.80;46.70
20594;DHT22;10455;48.732;10.266;2022-08-11T15:43:37;32.40;44.80
20594;DHT22;10455;48.732;10.266;2022-08-11T15:48:59;32.20;45.60
20594;DHT22;10455;48.732;10.266;2022-08-11T15:54:07;33.50;44.80
20594;DHT22;10455;48.732;10.266;2022-08-11T15:59:12;32.70;44.70
20594;DHT22;10455;48.732;10.266;2022-08-11T16:04:34;32.70;45.10
20594;DHT22;10455;48.732;10.266;2022-08-11T16:09:43;32.50;45.20
20594;DHT22;10455;48.732;10.266;2022-08-11T16:14:50;32.00;46.00
20594;DHT22;10455;48.732;10.266;2022-08-11T16:20:12;30.50;47.30
20594;DHT22;10455;48.732;10.266;2022-08-11T16:25:18;31.50;46.60
20594;DHT22;10455;48.732;10.266;2022-08-11T16:30:21;32.10;46.70
20594;DHT22;10455;48.732;10.266;2022-08-11T16:35:24;29.70;48.70
20594;DHT22;10455;48.732;10.266;2022-08-11T16:40:49;28.10;51.20
20594;DHT22;10455;48.732;10.266;2022-08-11T16:45:53;27.30;52.10
20594;DHT22;10455;48.732;10.266;2022-08-11T16:51:14;27.40;52.30
20594;DHT22;10455;48.732;10.266;2022-08-11T16:56:22;27.30;52.60
20594;DHT22;10455;48.732;10.266;2022-08-11T17:01:26;27.30;52.60
20594;DHT22;10455;48.732;10.266;2022-08-11T17:06:28;27.30;52.60
20594;DHT22;10455;48.732;10.266;2022-08-11T17:11:55;27.40;52.50
20594;DHT22;10455;48.732;10.266;2022-08-11T17:17:20;27.30;52.60
20594;DHT22;10455;48.732;10.266;2022-08-11T17:22:27;27.60;52.70
20594;DHT22;10455;48.732;10.266;2022-08-11T17:27:48;26.70;53.40
20594;DHT22;10455;48.732;10.266;2022-08-11T17:32:51;26.30;54.30
20594;DHT22;10455;48.732;10.266;2022-08-11T17:38:13;26.40;54.60
20594;DHT22;10455;48.732;10.266;2022-08-11T17:43:18;26.30;55.00
20594;DHT22;10455;48.732;10.266;2022-08-11T17:48:39;26.00;55.10
20594;DHT22;10455;48.732;10.266;2022-08-11T17:53:43;25.90;55.90
20594;DHT22;10455;48.732;10.266;2022-08-11T17:59:06;25.80;56.60
20594;DHT22;10455;48.732;10.266;2022-08-11T18:04:27;25.30;56.90
20594;DHT22;10455;48.732;10.266;2022-08-11T18:09:29;25.00;58.30
20594;DHT22;10455;48.732;10.266;2022-08-11T18:14:53;24.70;59.10
20594;DHT22;10455;48.732;10.266;2022-08-11T18:20:13;24.30;60.00
20594;DHT22;10455;48.732;10.266;2022-08-11T18:25:38;23.80;60.30
20594;DHT22;10455;48.732;10.266;2022-08-11T18:31:01;23.60;61.00
20594;DHT22;10455;48.732;10.266;2022-08-11T18:36:25;23.30;62.30
20594;DHT22;10455;48.732;10.266;2022-08-11T18:41:46;22.80;63.60
20594;DHT22;10455;48.732;10.266;2022-08-11T18:47:10;22.40;65.20
20594;DHT22;10455;48.732;10.266;2022-08-11T18:52:33;22.10;65.70
20594;DHT22;10455;48.732;10.266;2022-08-11T18:57:54;21.70;67.60
20594;DHT22;10455;48.732;10.266;2022-08-11T19:03:15;21.30;69.10
20594;DHT22;10455;48.732;10.266;2022-08-11T19:08:40;20.80;71.50
20594;DHT22;10455;48.732;10.266;2022-08-11T19:14:00;20.20;73.10
20594;DHT22;10455;48.732;10.266;2022-08-11T19:19:22;19.80;76.30
20594;DHT22;10455;48.732;10.266;2022-08-11T19:24:44;19.30;78.30
20594;DHT22;10455;48.732;10.266;2022-08-11T19:30:06;19.20;78.20
20594;DHT22;10455;48.732;10.266;2022-08-11T19:35:28;18.90;78.20
20594;DHT22;10455;48.732;10.266;2022-08-11T19:40:48;18.70;79.40
20594;DHT22;10455;48.732;10.266;2022-08-11T19:46:09;18.70;79.40
20594;DHT22;10455;48.732;10.266;2022-08-11T19:51:31;18.40;80.90
20594;DHT22;10455;48.732;10.266;2022-08-11T19:56:52;18.10;82.00
20594;DHT22;10455;48.732;10.266;2022-08-11T20:02:11;17.80;83.90
20594;DHT22;10455;48.732;10.266;2022-08-11T20:07:32;17.60;85.20
20594;DHT22;10455;48.732;10.266;2022-08-11T20:12:53;17.50;86.40
20594;DHT22;10455;48.732;10.266;2022-08-11T20:18:14;17.40;87.30
20594;DHT22;10455;48.732;10.266;2022-08-11T20:23:36;17.30;88.10
20594;DHT22;10455;48.732;10.266;2022-08-11T20:28:58;17.20;88.90
20594;DHT22;10455;48.732;10.266;2022-08-11T20:34:18;17.20;89.20
20594;DHT22;10455;48.732;10.266;2022-08-11T20:39:41;17.10;89.60
20594;DHT22;10455;48.732;10.266;2022-08-11T20:45:03;16.90;90.20
20594;DHT22;10455;48.732;10.266;2022-08-11T20:50:25;16.80;90.20
20594;DHT22;10455;48.732;10.266;2022-08-11T20:55:48;17.20;84.30
20594;DHT22;10455;48.732;10.266;2022-08-11T21:01:08;18.90;79.10
20594;DHT22;10455;48.732;10.266;2022-08-11T21:06:29;20.00;75.10
20594;DHT22;10455;48.732;10.266;2022-08-11T21:11:52;20.50;73.90
20594;DHT22;10455;48.732;10.266;2022-08-11T21:17:13;20.50;74.10
20594;DHT22;10455;48.732;10.266;2022-08-11T21:22:37;20.50;74.60
20594;DHT22;10455;48.732;10.266;2022-08-11T21:28:02;20.30;75.20
20594;DHT22;10455;48.732;10.266;2022-08-11T21:33:22;20.10;76.40
20594;DHT22;10455;48.732;10.266;2022-08-11T21:38:43;20.10;77.00
20594;DHT22;10455;48.732;10.266;2022-08-11T21:44:05;20.10;77.30
20594;DHT22;10455;48.732;10.266;2022-08-11T21:49:27;20.00;77.90
20594;DHT22;10455;48.732;10.266;2022-08-11T21:54:48;19.90;78.00
20594;DHT22;10455;48.732;10.266;2022-08-11T22:00:10;19.90;77.90
20594;DHT22;10455;48.732;10.266;2022-08-11T22:05:32;19.90;77.90
20594;DHT22;10455;48.732;10.266;2022-08-11T22:10:52;19.80;78.20
20594;DHT22;10455;48.732;10.266;2022-08-11T22:16:13;19.70;78.40
20594;DHT22;10455;48.732;10.266;2022-08-11T22:21:35;19.70;78.80
20594;DHT22;10455;48.732;10.266;2022-08-11T22:26:54;19.60;79.10
20594;DHT22;10455;48.732;10.266;2022-08-11T22:32:16;19.60;79.60
20594;DHT22;10455;48.732;10.266;2022-08-11T22:37:36;19.50;80.00
20594;DHT22;10455;48.732;10.266;2022-08-11T22:42:57;19.20;81.20
20594;DHT22;10455;48.732;10.266;2022-08-11T22:48:19;19.10;81.70
20594;DHT22;10455;48.732;10.266;2022-08-11T22:53:40;18.80;82.30
20594;DHT22;10455;48.732;10.266;2022-08-11T22:58:59;18.50;83.40
20594;DHT22;10455;48.732;10.266;2022-08-11T23:04:20;18.10;84.90
20594;DHT22;10455;48.732;10.266;2022-08-11T23:09:40;17.80;85.20
20594;DHT22;10455;48.732;10.266;2022-08-11T23:15:00;17.70;85.90
20594;DHT22;10455;48.732;10.266;2022-08-11T23:20:23;17.40;87.00
20594;DHT22;10455;48.732;10.266;2022-08-11T23:25:44;17.20;87.70
20594;DHT22;10455;48.732;10.266;2022-08-11T23:31:04;16.80;90.00
20594;DHT22;10455;48.732;10.266;2022-08-11T23:36:26;16.30;90.90
20594;DHT22;10455;48.732;10.266;2022-08-11T23:41:45;16.00;91.90
20594;DHT22;10455;48.732;10.266;2022-08-11T23:47:05;15.60;92.80
20594;DHT22;10455;48.732;10.266;2022-08-11T23:52:27;15.40;93.30
20594;DHT22;10455;48.732;10.266;2022-08-11T23:57:47;15.30;93.10
